sensor_id;sensor_type;location;lat;lon;timestamp;P1;durP1;ratioP1;P2;durP2;ratioP2
21517;SDS011;61765;45.794;24.150;2023-03-01T00:05:24;70.38;;;39.47;;
21517;SDS011;61765;45.794;24.150;2023-03-01T00:13:32;74.32;;;40.70;;
21517;SDS011;61765;45.794;24.150;2023-03-01T00:21:38;78.40;;;43.47;;
21517;SDS011;61765;45.794;24.150;2023-03-01T00:29:47;74.05;;;41.10;;
21517;SDS011;61765;45.794;24.150;2023-03-01T00:37:52;68.95;;;37.08;;
21517;SDS011;61765;45.794;24.150;2023-03-01T00:46:04;64.40;;;35.95;;
21517;SDS011;61765;45.794;24.150;2023-03-01T00:54:15;66.78;;;35.58;;
21517;SDS011;61765;45.794;24.150;2023-03-01T01:02:24;69.65;;;37.80;;
21517;SDS011;61765;45.794;24.150;2023-03-01T01:10:30;63.65;;;34.85;;
21517;SDS011;61765;45.794;24.150;2023-03-01T01:18:38;56.65;;;33.45;;
21517;SDS011;61765;45.794;24.150;2023-03-01T01:26:43;57.50;;;33.50;;
21517;SDS011;61765;45.794;24.150;2023-03-01T01:34:51;56.85;;;33.15;;
21517;SDS011;61765;45.794;24.150;2023-03-01T01:42:57;57.38;;;33.42;;
21517;SDS011;61765;45.794;24.150;2023-03-01T01:51:05;58.13;;;32.38;;
21517;SDS011;61765;45.794;24.150;2023-03-01T01:59:14;48.97;;;28.05;;
21517;SDS011;61765;45.794;24.150;2023-03-01T02:07:22;42.85;;;25.25;;
21517;SDS011;61765;45.794;24.150;2023-03-01T02:15:31;40.05;;;24.02;;
21517;SDS011;61765;45.794;24.150;2023-03-01T02:23:41;42.75;;;23.52;;
21517;SDS011;61765;45.794;24.150;2023-03-01T02:31:49;38.38;;;22.80;;
21517;SDS011;61765;45.794;24.150;2023-03-01T02:40:01;41.08;;;25.40;;
21517;SDS011;61765;45.794;24.150;2023-03-01T02:48:16;49.83;;;27.50;;
21517;SDS011;61765;45.794;24.150;2023-03-01T02:56:22;45.15;;;24.65;;
21517;SDS011;61765;45.794;24.150;2023-03-01T03:04:30;51.28;;;29.33;;
21517;SDS011;61765;45.794;24.150;2023-03-01T03:12:36;47.92;;;27.85;;
21517;SDS011;61765;45.794;24.150;2023-03-01T03:20:44;48.15;;;27.35;;
21517;SDS011;61765;45.794;24.150;2023-03-01T03:28:54;41.30;;;24.77;;
21517;SDS011;61765;45.794;24.150;2023-03-01T03:37:02;40.88;;;24.75;;
21517;SDS011;61765;45.794;24.150;2023-03-01T03:45:27;35.97;;;20.73;;
21517;SDS011;61765;45.794;24.150;2023-03-01T03:53:37;38.05;;;21.67;;
21517;SDS011;61765;45.794;24.150;2023-03-01T04:01:43;41.88;;;23.48;;
21517;SDS011;61765;45.794;24.150;2023-03-01T04:09:51;35.53;;;22.45;;
21517;SDS011;61765;45.794;24.150;2023-03-01T04:17:56;37.08;;;22.30;;
21517;SDS011;61765;45.794;24.150;2023-03-01T04:26:04;40.70;;;24.23;;
21517;SDS011;61765;45.794;24.150;2023-03-01T04:34:10;42.67;;;23.40;;
21517;SDS011;61765;45.794;24.150;2023-03-01T04:42:18;42.70;;;24.60;;
21517;SDS011;61765;45.794;24.150;2023-03-01T04:50:24;43.95;;;24.48;;
21517;SDS011;61765;45.794;24.150;2023-03-01T04:58:32;48.22;;;27.02;;
21517;SDS011;61765;45.794;24.150;2023-03-01T05:06:38;46.53;;;27.33;;
21517;SDS011;61765;45.794;24.150;2023-03-01T05:14:46;45.65;;;25.88;;
21517;SDS011;61765;45.794;24.150;2023-03-01T05:22:54;39.53;;;24.05;;
21517;SDS011;61765;45.794;24.150;2023-03-01T05:31:04;38.80;;;24.00;;
21517;SDS011;61765;45.794;24.150;2023-03-01T05:39:11;54.05;;;30.23;;
21517;SDS011;61765;45.794;24.150;2023-03-01T05:47:19;41.15;;;24.55;;
21517;SDS011;61765;45.794;24.150;2023-03-01T05:55:25;35.67;;;21.95;;
21517;SDS011;61765;45.794;24.150;2023-03-01T06:03:33;43.40;;;24.45;;
21517;SDS011;61765;45.794;24.150;2023-03-01T06:11:39;48.33;;;27.02;;
21517;SDS011;61765;45.794;24.150;2023-03-01T06:19:47;40.55;;;23.70;;
21517;SDS011;61765;45.794;24.150;2023-03-01T06:27:52;37.28;;;23.45;;
21517;SDS011;61765;45.794;24.150;2023-03-01T06:36:00;39.67;;;22.90;;
21517;SDS011;61765;45.794;24.150;2023-03-01T06:44:06;42.08;;;24.35;;
21517;SDS011;61765;45.794;24.150;2023-03-01T06:52:14;45.25;;;25.85;;
21517;SDS011;61765;45.794;24.150;2023-03-01T07:00:20;44.35;;;25.27;;
21517;SDS011;61765;45.794;24.150;2023-03-01T07:08:28;45.38;;;26.80;;
21517;SDS011;61765;45.794;24.150;2023-03-01T07:16:34;53.83;;;30.38;;
21517;SDS011;61765;45.794;24.150;2023-03-01T07:24:43;48.05;;;29.05;;
21517;SDS011;61765;45.794;24.150;2023-03-01T07:32:48;49.10;;;28.23;;
21517;SDS011;61765;45.794;24.150;2023-03-01T07:41:00;44.70;;;28.00;;
21517;SDS011;61765;45.794;24.150;2023-03-01T07:49:07;53.83;;;28.67;;
21517;SDS011;61765;45.794;24.150;2023-03-01T07:57:15;52.45;;;31.80;;
21517;SDS011;61765;45.794;24.150;2023-03-01T08:05:20;55.85;;;33.40;;
21517;SDS011;61765;45.794;24.150;2023-03-01T08:13:29;56.50;;;32.17;;
21517;SDS011;61765;45.794;24.150;2023-03-01T08:21:35;40.33;;;22.48;;
21517;SDS011;61765;45.794;24.150;2023-03-01T08:29:44;39.33;;;23.77;;
21517;SDS011;61765;45.794;24.150;2023-03-01T08:37:49;41.65;;;25.58;;
21517;SDS011;61765;45.794;24.150;2023-03-01T08:45:57;39.42;;;22.02;;
21517;SDS011;61765;45.794;24.150;2023-03-01T08:54:03;30.92;;;17.80;;
21517;SDS011;61765;45.794;24.150;2023-03-01T09:02:14;30.17;;;18.30;;
21517;SDS011;61765;45.794;24.150;2023-03-01T09:10:20;26.95;;;16.90;;
21517;SDS011;61765;45.794;24.150;2023-03-01T09:18:29;26.50;;;16.05;;
21517;SDS011;61765;45.794;24.150;2023-03-01T09:26:35;31.88;;;16.58;;
21517;SDS011;61765;45.794;24.150;2023-03-01T09:34:43;27.33;;;16.13;;
21517;SDS011;61765;45.794;24.150;2023-03-01T09:43:08;31.33;;;18.55;;
21517;SDS011;61765;45.794;24.150;2023-03-01T09:51:26;30.95;;;16.30;;
21517;SDS011;61765;45.794;24.150;2023-03-01T09:59:38;22.25;;;12.52;;
21517;SDS011;61765;45.794;24.150;2023-03-01T10:08:00;21.13;;;10.20;;
21517;SDS011;61765;45.794;24.150;2023-03-01T10:16:21;23.02;;;10.07;;
21517;SDS011;61765;45.794;24.150;2023-03-01T10:24:34;22.08;;;11.70;;
21517;SDS011;61765;45.794;24.150;2023-03-01T10:32:41;16.55;;;9.90;;
21517;SDS011;61765;45.794;24.150;2023-03-01T10:40:54;15.18;;;9.00;;
21517;SDS011;61765;45.794;24.150;2023-03-01T10:49:11;16.42;;;8.35;;
21517;SDS011;61765;45.794;24.150;2023-03-01T11:05:50;19.10;;;9.13;;
21517;SDS011;61765;45.794;24.150;2023-03-01T11:14:02;17.27;;;9.55;;
21517;SDS011;61765;45.794;24.150;2023-03-01T11:22:26;18.00;;;8.70;;
21517;SDS011;61765;45.794;24.150;2023-03-01T11:30:37;15.38;;;8.35;;
21517;SDS011;61765;45.794;24.150;2023-03-01T11:39:12;15.85;;;8.60;;
21517;SDS011;61765;45.794;24.150;2023-03-01T11:47:33;19.58;;;9.82;;
21517;SDS011;61765;45.794;24.150;2023-03-01T11:55:54;25.97;;;12.60;;
21517;SDS011;61765;45.794;24.150;2023-03-01T12:04:30;16.45;;;9.70;;
21517;SDS011;61765;45.794;24.150;2023-03-01T12:13:08;19.00;;;10.35;;
21517;SDS011;61765;45.794;24.150;2023-03-01T12:21:49;19.60;;;9.68;;
21517;SDS011;61765;45.794;24.150;2023-03-01T12:30:16;15.88;;;9.40;;
21517;SDS011;61765;45.794;24.150;2023-03-01T12:38:37;18.55;;;10.05;;
21517;SDS011;61765;45.794;24.150;2023-03-01T12:46:50;19.73;;;10.00;;
21517;SDS011;61765;45.794;24.150;2023-03-01T12:55:18;23.47;;;9.10;;
21517;SDS011;61765;45.794;24.150;2023-03-01T13:03:32;17.10;;;9.82;;
21517;SDS011;61765;45.794;24.150;2023-03-01T13:20:49;14.18;;;8.95;;
21517;SDS011;61765;45.794;24.150;2023-03-01T13:28:59;18.92;;;8.85;;
21517;SDS011;61765;45.794;24.150;2023-03-01T13:37:17;24.92;;;9.18;;
21517;SDS011;61765;45.794;24.150;2023-03-01T13:45:38;12.90;;;8.75;;
21517;SDS011;61765;45.794;24.150;2023-03-01T13:53:45;18.63;;;9.18;;
21517;SDS011;61765;45.794;24.150;2023-03-01T14:01:55;14.25;;;8.15;;
21517;SDS011;61765;45.794;24.150;2023-03-01T14:10:03;14.45;;;7.40;;
21517;SDS011;61765;45.794;24.150;2023-03-01T14:18:14;13.20;;;7.93;;
21517;SDS011;61765;45.794;24.150;2023-03-01T14:26:25;13.15;;;7.70;;
21517;SDS011;61765;45.794;24.150;2023-03-01T14:34:34;12.50;;;8.40;;
21517;SDS011;61765;45.794;24.150;2023-03-01T14:42:40;14.00;;;8.15;;
21517;SDS011;61765;45.794;24.150;2023-03-01T14:50:50;17.58;;;8.57;;
21517;SDS011;61765;45.794;24.150;2023-03-01T14:58:57;17.77;;;8.68;;
21517;SDS011;61765;45.794;24.150;2023-03-01T15:07:06;14.80;;;8.60;;
21517;SDS011;61765;45.794;24.150;2023-03-01T15:23:50;22.88;;;12.50;;
21517;SDS011;61765;45.794;24.150;2023-03-01T15:31:59;13.20;;;8.13;;
21517;SDS011;61765;45.794;24.150;2023-03-01T15:40:23;17.40;;;9.70;;
21517;SDS011;61765;45.794;24.150;2023-03-01T15:48:33;18.45;;;10.43;;
21517;SDS011;61765;45.794;24.150;2023-03-01T15:56:41;13.13;;;8.27;;
21517;SDS011;61765;45.794;24.150;2023-03-01T16:04:47;16.92;;;8.32;;
21517;SDS011;61765;45.794;24.150;2023-03-01T16:12:55;16.38;;;8.55;;
21517;SDS011;61765;45.794;24.150;2023-03-01T16:21:03;15.77;;;9.15;;
21517;SDS011;61765;45.794;24.150;2023-03-01T16:29:13;17.38;;;10.48;;
21517;SDS011;61765;45.794;24.150;2023-03-01T16:37:21;20.27;;;11.05;;
21517;SDS011;61765;45.794;24.150;2023-03-01T16:45:32;22.05;;;12.48;;
21517;SDS011;61765;45.794;24.150;2023-03-01T16:53:42;21.05;;;10.52;;
21517;SDS011;61765;45.794;24.150;2023-03-01T17:01:51;19.30;;;9.85;;
21517;SDS011;61765;45.794;24.150;2023-03-01T17:09:57;18.48;;;9.75;;
21517;SDS011;61765;45.794;24.150;2023-03-01T17:18:05;16.98;;;9.40;;
21517;SDS011;61765;45.794;24.150;2023-03-01T17:26:13;12.73;;;8.10;;
21517;SDS011;61765;45.794;24.150;2023-03-01T17:34:21;18.45;;;10.00;;
21517;SDS011;61765;45.794;24.150;2023-03-01T17:42:27;16.27;;;9.15;;
21517;SDS011;61765;45.794;24.150;2023-03-01T17:50:35;13.50;;;8.50;;
21517;SDS011;61765;45.794;24.150;2023-03-01T17:58:42;19.58;;;10.05;;
21517;SDS011;61765;45.794;24.150;2023-03-01T18:06:50;21.70;;;10.93;;
21517;SDS011;61765;45.794;24.150;2023-03-01T18:14:56;21.13;;;10.30;;
21517;SDS011;61765;45.794;24.150;2023-03-01T18:23:05;20.75;;;10.77;;
21517;SDS011;61765;45.794;24.150;2023-03-01T18:31:11;18.70;;;10.32;;
21517;SDS011;61765;45.794;24.150;2023-03-01T18:39:22;16.58;;;9.95;;
21517;SDS011;61765;45.794;24.150;2023-03-01T18:47:28;16.38;;;10.25;;
21517;SDS011;61765;45.794;24.150;2023-03-01T18:55:37;16.42;;;9.93;;
21517;SDS011;61765;45.794;24.150;2023-03-01T19:03:43;17.88;;;10.13;;
21517;SDS011;61765;45.794;24.150;2023-03-01T19:11:52;17.10;;;10.27;;
21517;SDS011;61765;45.794;24.150;2023-03-01T19:20:05;18.10;;;10.85;;
21517;SDS011;61765;45.794;24.150;2023-03-01T19:28:14;22.05;;;11.00;;
21517;SDS011;61765;45.794;24.150;2023-03-01T19:36:22;20.77;;;10.80;;
21517;SDS011;61765;45.794;24.150;2023-03-01T19:44:37;23.42;;;12.32;;
21517;SDS011;61765;45.794;24.150;2023-03-01T19:52:45;21.92;;;11.55;;
21517;SDS011;61765;45.794;24.150;2023-03-01T20:00:54;24.27;;;11.60;;
21517;SDS011;61765;45.794;24.150;2023-03-01T20:09:01;21.58;;;11.32;;
21517;SDS011;61765;45.794;24.150;2023-03-01T20:17:25;20.77;;;10.57;;
21517;SDS011;61765;45.794;24.150;2023-03-01T20:25:34;22.58;;;10.38;;
21517;SDS011;61765;45.794;24.150;2023-03-01T20:33:42;22.55;;;11.60;;
21517;SDS011;61765;45.794;24.150;2023-03-01T20:41:48;24.95;;;11.85;;
21517;SDS011;61765;45.794;24.150;2023-03-01T20:49:56;27.45;;;12.65;;
21517;SDS011;61765;45.794;24.150;2023-03-01T20:58:03;25.00;;;11.07;;
21517;SDS011;61765;45.794;24.150;2023-03-01T21:06:11;21.70;;;11.52;;
21517;SDS011;61765;45.794;24.150;2023-03-01T21:14:17;20.67;;;12.52;;
21517;SDS011;61765;45.794;24.150;2023-03-01T21:22:27;19.77;;;10.68;;
21517;SDS011;61765;45.794;24.150;2023-03-01T21:30:36;22.05;;;10.80;;
21517;SDS011;61765;45.794;24.150;2023-03-01T21:38:46;20.20;;;9.27;;
21517;SDS011;61765;45.794;24.150;2023-03-01T21:46:53;21.35;;;11.15;;
21517;SDS011;61765;45.794;24.150;2023-03-01T21:55:02;30.38;;;12.77;;
21517;SDS011;61765;45.794;24.150;2023-03-01T22:03:08;19.35;;;10.30;;
21517;SDS011;61765;45.794;24.150;2023-03-01T22:11:16;20.95;;;10.48;;
21517;SDS011;61765;45.794;24.150;2023-03-01T22:19:22;22.35;;;10.77;;
21517;SDS011;61765;45.794;24.150;2023-03-01T22:27:32;20.02;;;10.23;;
21517;SDS011;61765;45.794;24.150;2023-03-01T22:35:39;17.60;;;10.02;;
21517;SDS011;61765;45.794;24.150;2023-03-01T22:43:48;17.95;;;10.68;;
21517;SDS011;61765;45.794;24.150;2023-03-01T22:51:53;18.83;;;10.30;;
21517;SDS011;61765;45.794;24.150;2023-03-01T23:00:05;18.38;;;9.98;;
21517;SDS011;61765;45.794;24.150;2023-03-01T23:08:13;19.92;;;9.30;;
21517;SDS011;61765;45.794;24.150;2023-03-01T23:16:22;17.58;;;8.70;;
21517;SDS011;61765;45.794;24.150;2023-03-01T23:24:28;14.75;;;8.48;;
21517;SDS011;61765;45.794;24.150;2023-03-01T23:32:37;14.38;;;9.35;;
21517;SDS011;61765;45.794;24.150;2023-03-01T23:40:42;15.73;;;8.32;;
21517;SDS011;61765;45.794;24.150;2023-03-01T23:48:51;13.68;;;7.85;;
21517;SDS011;61765;45.794;24.150;2023-03-01T23:56:57;15.27;;;7.03;;
